sensor_id;sensor_type;location;lat;lon;timestamp;P1;durP1;ratioP1;P2;durP2;ratioP2
29030;SDS011;16122;50.236;11.734;2023-07-29T00:02:17;1.13;;;0.83;;
29030;SDS011;16122;50.236;11.734;2023-07-29T00:04:43;0.97;;;0.80;;
29030;SDS011;16122;50.236;11.734;2023-07-29T00:07:08;1.27;;;0.80;;
29030;SDS011;16122;50.236;11.734;2023-07-29T00:09:34;1.23;;;1.13;;
29030;SDS011;16122;50.236;11.734;2023-07-29T00:12:00;1.00;;;0.90;;
29030;SDS011;16122;50.236;11.734;2023-07-29T00:14:26;1.00;;;0.90;;
29030;SDS011;16122;50.236;11.734;2023-07-29T00:16:52;1.10;;;1.00;;
29030;SDS011;16122;50.236;11.734;2023-07-29T00:19:18;1.73;;;1.63;;
29030;SDS011;16122;50.236;11.734;2023-07-29T00:21:45;1.10;;;1.00;;
29030;SDS011;16122;50.236;11.734;2023-07-29T00:24:11;0.87;;;0.87;;
29030;SDS011;16122;50.236;11.734;2023-07-29T00:26:37;1.83;;;1.00;;
29030;SDS011;16122;50.236;11.734;2023-07-29T00:29:03;0.90;;;0.80;;
29030;SDS011;16122;50.236;11.734;2023-07-29T00:31:29;1.17;;;0.70;;
29030;SDS011;16122;50.236;11.734;2023-07-29T00:33:56;1.43;;;0.70;;
29030;SDS011;16122;50.236;11.734;2023-07-29T00:36:23;1.10;;;0.80;;
29030;SDS011;16122;50.236;11.734;2023-07-29T00:38:50;0.77;;;0.73;;
29030;SDS011;16122;50.236;11.734;2023-07-29T00:41:16;0.90;;;0.80;;
29030;SDS011;16122;50.236;11.734;2023-07-29T00:43:41;3.23;;;0.80;;
29030;SDS011;16122;50.236;11.734;2023-07-29T00:46:08;4.10;;;0.90;;
29030;SDS011;16122;50.236;11.734;2023-07-29T00:48:35;1.20;;;0.80;;
29030;SDS011;16122;50.236;11.734;2023-07-29T00:51:02;1.53;;;0.97;;
29030;SDS011;16122;50.236;11.734;2023-07-29T00:53:28;0.90;;;0.90;;
29030;SDS011;16122;50.236;11.734;2023-07-29T00:55:54;1.07;;;0.97;;
29030;SDS011;16122;50.236;11.734;2023-07-29T00:58:20;0.87;;;0.70;;
29030;SDS011;16122;50.236;11.734;2023-07-29T01:00:46;0.80;;;0.77;;
29030;SDS011;16122;50.236;11.734;2023-07-29T01:03:12;1.10;;;0.83;;
29030;SDS011;16122;50.236;11.734;2023-07-29T01:05:42;1.20;;;0.90;;
29030;SDS011;16122;50.236;11.734;2023-07-29T01:11:16;0.73;;;0.73;;
29030;SDS011;16122;50.236;11.734;2023-07-29T01:13:58;1.00;;;0.77;;
29030;SDS011;16122;50.236;11.734;2023-07-29T01:17:22;1.57;;;1.23;;
29030;SDS011;16122;50.236;11.734;2023-07-29T01:22:16;1.43;;;0.70;;
29030;SDS011;16122;50.236;11.734;2023-07-29T01:24:43;0.90;;;0.80;;
29030;SDS011;16122;50.236;11.734;2023-07-29T01:27:09;0.90;;;0.90;;
29030;SDS011;16122;50.236;11.734;2023-07-29T01:29:34;0.70;;;0.70;;
29030;SDS011;16122;50.236;11.734;2023-07-29T01:32:04;0.70;;;0.70;;
29030;SDS011;16122;50.236;11.734;2023-07-29T01:34:48;1.20;;;0.97;;
29030;SDS011;16122;50.236;11.734;2023-07-29T01:37:25;1.40;;;1.30;;
29030;SDS011;16122;50.236;11.734;2023-07-29T01:39:54;0.90;;;0.70;;
29030;SDS011;16122;50.236;11.734;2023-07-29T01:42:24;0.80;;;0.80;;
29030;SDS011;16122;50.236;11.734;2023-07-29T01:44:51;1.00;;;0.90;;
29030;SDS011;16122;50.236;11.734;2023-07-29T01:47:17;1.10;;;1.00;;
29030;SDS011;16122;50.236;11.734;2023-07-29T01:49:43;1.23;;;0.90;;
29030;SDS011;16122;50.236;11.734;2023-07-29T01:52:08;0.80;;;0.80;;
29030;SDS011;16122;50.236;11.734;2023-07-29T01:54:34;0.80;;;0.70;;
29030;SDS011;16122;50.236;11.734;2023-07-29T01:57:00;0.80;;;0.80;;
29030;SDS011;16122;50.236;11.734;2023-07-29T01:59:26;0.73;;;0.70;;
29030;SDS011;16122;50.236;11.734;2023-07-29T02:01:52;0.77;;;0.77;;
29030;SDS011;16122;50.236;11.734;2023-07-29T02:04:18;0.97;;;0.90;;
29030;SDS011;16122;50.236;11.734;2023-07-29T02:06:43;0.67;;;0.63;;
29030;SDS011;16122;50.236;11.734;2023-07-29T02:09:09;0.80;;;0.80;;
29030;SDS011;16122;50.236;11.734;2023-07-29T02:11:35;1.67;;;0.70;;
29030;SDS011;16122;50.236;11.734;2023-07-29T02:14:01;1.43;;;0.77;;
29030;SDS011;16122;50.236;11.734;2023-07-29T02:16:27;0.80;;;0.80;;
29030;SDS011;16122;50.236;11.734;2023-07-29T02:18:53;1.00;;;0.70;;
29030;SDS011;16122;50.236;11.734;2023-07-29T02:21:19;1.00;;;0.80;;
29030;SDS011;16122;50.236;11.734;2023-07-29T02:23:45;1.37;;;0.90;;
29030;SDS011;16122;50.236;11.734;2023-07-29T02:26:11;0.80;;;0.80;;
29030;SDS011;16122;50.236;11.734;2023-07-29T02:28:37;0.70;;;0.70;;
29030;SDS011;16122;50.236;11.734;2023-07-29T02:31:36;1.37;;;0.80;;
29030;SDS011;16122;50.236;11.734;2023-07-29T02:33:55;0.80;;;0.80;;
29030;SDS011;16122;50.236;11.734;2023-07-29T02:36:21;0.77;;;0.70;;
29030;SDS011;16122;50.236;11.734;2023-07-29T02:38:47;1.00;;;0.90;;
29030;SDS011;16122;50.236;11.734;2023-07-29T02:41:13;0.80;;;0.80;;
29030;SDS011;16122;50.236;11.734;2023-07-29T02:43:42;0.90;;;0.90;;
29030;SDS011;16122;50.236;11.734;2023-07-29T02:46:08;0.80;;;0.70;;
29030;SDS011;16122;50.236;11.734;2023-07-29T02:48:34;0.80;;;0.80;;
29030;SDS011;16122;50.236;11.734;2023-07-29T02:51:00;0.70;;;0.70;;
29030;SDS011;16122;50.236;11.734;2023-07-29T02:53:26;0.77;;;0.77;;
29030;SDS011;16122;50.236;11.734;2023-07-29T02:55:52;0.70;;;0.70;;
29030;SDS011;16122;50.236;11.734;2023-07-29T02:58:19;1.63;;;1.53;;
29030;SDS011;16122;50.236;11.734;2023-07-29T03:00:45;0.90;;;0.73;;
29030;SDS011;16122;50.236;11.734;2023-07-29T03:03:13;0.70;;;0.70;;
29030;SDS011;16122;50.236;11.734;2023-07-29T03:05:39;0.73;;;0.73;;
29030;SDS011;16122;50.236;11.734;2023-07-29T03:08:05;0.70;;;0.70;;
29030;SDS011;16122;50.236;11.734;2023-07-29T03:10:31;0.93;;;0.80;;
29030;SDS011;16122;50.236;11.734;2023-07-29T03:12:56;0.87;;;0.87;;
29030;SDS011;16122;50.236;11.734;2023-07-29T03:15:23;0.87;;;0.87;;
29030;SDS011;16122;50.236;11.734;2023-07-29T03:17:52;0.80;;;0.80;;
29030;SDS011;16122;50.236;11.734;2023-07-29T03:20:19;0.80;;;0.80;;
29030;SDS011;16122;50.236;11.734;2023-07-29T03:22:45;0.73;;;0.70;;
29030;SDS011;16122;50.236;11.734;2023-07-29T03:25:12;0.80;;;0.80;;
29030;SDS011;16122;50.236;11.734;2023-07-29T03:27:38;1.00;;;0.90;;
29030;SDS011;16122;50.236;11.734;2023-07-29T03:30:05;0.90;;;0.90;;
29030;SDS011;16122;50.236;11.734;2023-07-29T03:32:32;0.93;;;0.80;;
29030;SDS011;16122;50.236;11.734;2023-07-29T03:34:58;0.70;;;0.60;;
29030;SDS011;16122;50.236;11.734;2023-07-29T03:37:24;1.03;;;0.60;;
29030;SDS011;16122;50.236;11.734;2023-07-29T03:39:50;0.70;;;0.60;;
29030;SDS011;16122;50.236;11.734;2023-07-29T03:42:17;0.80;;;0.60;;
29030;SDS011;16122;50.236;11.734;2023-07-29T03:44:43;3.40;;;0.70;;
29030;SDS011;16122;50.236;11.734;2023-07-29T03:47:09;1.90;;;0.90;;
29030;SDS011;16122;50.236;11.734;2023-07-29T03:49:37;0.90;;;0.80;;
29030;SDS011;16122;50.236;11.734;2023-07-29T03:52:05;0.80;;;0.80;;
29030;SDS011;16122;50.236;11.734;2023-07-29T03:54:31;0.80;;;0.80;;
29030;SDS011;16122;50.236;11.734;2023-07-29T03:56:57;0.70;;;0.70;;
29030;SDS011;16122;50.236;11.734;2023-07-29T03:59:22;1.43;;;0.90;;
29030;SDS011;16122;50.236;11.734;2023-07-29T04:01:48;0.70;;;0.70;;
29030;SDS011;16122;50.236;11.734;2023-07-29T04:04:14;0.70;;;0.70;;
29030;SDS011;16122;50.236;11.734;2023-07-29T04:06:40;0.70;;;0.70;;
29030;SDS011;16122;50.236;11.734;2023-07-29T04:09:06;1.17;;;0.80;;
29030;SDS011;16122;50.236;11.734;2023-07-29T04:11:33;0.90;;;0.70;;
29030;SDS011;16122;50.236;11.734;2023-07-29T04:13:59;0.93;;;0.90;;
29030;SDS011;16122;50.236;11.734;2023-07-29T04:16:25;0.80;;;0.80;;
29030;SDS011;16122;50.236;11.734;2023-07-29T04:18:51;0.90;;;0.80;;
29030;SDS011;16122;50.236;11.734;2023-07-29T04:21:17;0.87;;;0.80;;
29030;SDS011;16122;50.236;11.734;2023-07-29T04:23:43;0.93;;;0.90;;
29030;SDS011;16122;50.236;11.734;2023-07-29T04:26:08;1.27;;;0.90;;
29030;SDS011;16122;50.236;11.734;2023-07-29T04:28:34;0.77;;;0.70;;
29030;SDS011;16122;50.236;11.734;2023-07-29T04:31:00;0.80;;;0.80;;
29030;SDS011;16122;50.236;11.734;2023-07-29T04:33:26;1.23;;;0.73;;
29030;SDS011;16122;50.236;11.734;2023-07-29T04:35:54;0.80;;;0.73;;
29030;SDS011;16122;50.236;11.734;2023-07-29T04:38:20;0.80;;;0.80;;
29030;SDS011;16122;50.236;11.734;2023-07-29T04:40:46;0.80;;;0.80;;
29030;SDS011;16122;50.236;11.734;2023-07-29T04:43:14;0.70;;;0.70;;
29030;SDS011;16122;50.236;11.734;2023-07-29T04:45:43;1.07;;;0.80;;
29030;SDS011;16122;50.236;11.734;2023-07-29T04:48:09;0.80;;;0.80;;
29030;SDS011;16122;50.236;11.734;2023-07-29T04:50:35;1.70;;;1.13;;
29030;SDS011;16122;50.236;11.734;2023-07-29T04:53:01;1.00;;;0.90;;
29030;SDS011;16122;50.236;11.734;2023-07-29T04:55:27;0.70;;;0.70;;
29030;SDS011;16122;50.236;11.734;2023-07-29T04:57:53;0.80;;;0.80;;
29030;SDS011;16122;50.236;11.734;2023-07-29T05:00:18;1.27;;;1.10;;
29030;SDS011;16122;50.236;11.734;2023-07-29T05:02:44;0.80;;;0.80;;
29030;SDS011;16122;50.236;11.734;2023-07-29T05:05:11;0.70;;;0.70;;
29030;SDS011;16122;50.236;11.734;2023-07-29T05:07:37;3.97;;;1.20;;
29030;SDS011;16122;50.236;11.734;2023-07-29T05:10:03;1.10;;;1.00;;
29030;SDS011;16122;50.236;11.734;2023-07-29T05:12:29;0.80;;;0.80;;
29030;SDS011;16122;50.236;11.734;2023-07-29T05:14:58;0.83;;;0.83;;
29030;SDS011;16122;50.236;11.734;2023-07-29T05:17:23;1.10;;;0.93;;
29030;SDS011;16122;50.236;11.734;2023-07-29T05:19:49;1.03;;;0.90;;
29030;SDS011;16122;50.236;11.734;2023-07-29T05:22:15;1.10;;;1.00;;
29030;SDS011;16122;50.236;11.734;2023-07-29T05:24:41;1.27;;;1.17;;
29030;SDS011;16122;50.236;11.734;2023-07-29T05:27:07;1.40;;;1.30;;
29030;SDS011;16122;50.236;11.734;2023-07-29T05:29:33;1.63;;;0.90;;
29030;SDS011;16122;50.236;11.734;2023-07-29T05:31:59;0.90;;;0.90;;
29030;SDS011;16122;50.236;11.734;2023-07-29T05:34:26;2.90;;;0.90;;
29030;SDS011;16122;50.236;11.734;2023-07-29T05:36:52;0.80;;;0.80;;
29030;SDS011;16122;50.236;11.734;2023-07-29T05:39:18;1.00;;;0.90;;
29030;SDS011;16122;50.236;11.734;2023-07-29T05:41:44;1.87;;;1.03;;
29030;SDS011;16122;50.236;11.734;2023-07-29T05:44:11;2.17;;;1.10;;
29030;SDS011;16122;50.236;11.734;2023-07-29T05:46:36;1.87;;;0.83;;
29030;SDS011;16122;50.236;11.734;2023-07-29T05:49:02;1.20;;;0.90;;
29030;SDS011;16122;50.236;11.734;2023-07-29T05:51:28;2.17;;;1.10;;
29030;SDS011;16122;50.236;11.734;2023-07-29T05:53:54;1.57;;;1.00;;
29030;SDS011;16122;50.236;11.734;2023-07-29T05:56:20;1.03;;;0.93;;
29030;SDS011;16122;50.236;11.734;2023-07-29T05:58:46;1.43;;;0.80;;
29030;SDS011;16122;50.236;11.734;2023-07-29T06:01:12;1.17;;;1.00;;
29030;SDS011;16122;50.236;11.734;2023-07-29T06:03:38;1.10;;;1.10;;
29030;SDS011;16122;50.236;11.734;2023-07-29T06:06:03;1.50;;;1.00;;
29030;SDS011;16122;50.236;11.734;2023-07-29T06:08:29;5.00;;;1.23;;
29030;SDS011;16122;50.236;11.734;2023-07-29T06:10:58;1.13;;;0.97;;
29030;SDS011;16122;50.236;11.734;2023-07-29T06:13:24;2.00;;;1.27;;
29030;SDS011;16122;50.236;11.734;2023-07-29T06:15:50;4.63;;;1.40;;
29030;SDS011;16122;50.236;11.734;2023-07-29T06:18:15;2.90;;;1.17;;
29030;SDS011;16122;50.236;11.734;2023-07-29T06:20:42;1.63;;;1.00;;
29030;SDS011;16122;50.236;11.734;2023-07-29T06:23:08;1.20;;;1.10;;
29030;SDS011;16122;50.236;11.734;2023-07-29T06:25:34;2.70;;;1.00;;
29030;SDS011;16122;50.236;11.734;2023-07-29T06:28:00;1.87;;;1.60;;
29030;SDS011;16122;50.236;11.734;2023-07-29T06:30:26;4.27;;;1.10;;
29030;SDS011;16122;50.236;11.734;2023-07-29T06:32:52;1.47;;;1.20;;
29030;SDS011;16122;50.236;11.734;2023-07-29T06:35:18;3.83;;;1.20;;
29030;SDS011;16122;50.236;11.734;2023-07-29T06:37:44;3.23;;;1.63;;
29030;SDS011;16122;50.236;11.734;2023-07-29T06:40:10;1.97;;;1.10;;
29030;SDS011;16122;50.236;11.734;2023-07-29T06:42:36;2.90;;;1.30;;
29030;SDS011;16122;50.236;11.734;2023-07-29T06:45:02;1.60;;;1.30;;
29030;SDS011;16122;50.236;11.734;2023-07-29T06:47:29;1.43;;;1.10;;
29030;SDS011;16122;50.236;11.734;2023-07-29T06:50:14;2.00;;;1.33;;
29030;SDS011;16122;50.236;11.734;2023-07-29T06:52:40;2.50;;;1.60;;
29030;SDS011;16122;50.236;11.734;2023-07-29T06:55:06;1.40;;;1.30;;
29030;SDS011;16122;50.236;11.734;2023-07-29T06:57:32;5.53;;;1.20;;
29030;SDS011;16122;50.236;11.734;2023-07-29T06:59:58;4.80;;;1.10;;
29030;SDS011;16122;50.236;11.734;2023-07-29T07:02:24;2.80;;;1.27;;
29030;SDS011;16122;50.236;11.734;2023-07-29T07:04:49;3.23;;;1.20;;
29030;SDS011;16122;50.236;11.734;2023-07-29T07:07:15;2.03;;;1.00;;
29030;SDS011;16122;50.236;11.734;2023-07-29T07:09:41;1.20;;;1.00;;
29030;SDS011;16122;50.236;11.734;2023-07-29T07:12:07;1.47;;;0.93;;
29030;SDS011;16122;50.236;11.734;2023-07-29T07:14:33;2.20;;;1.20;;
29030;SDS011;16122;50.236;11.734;2023-07-29T07:17:00;1.30;;;1.00;;
29030;SDS011;16122;50.236;11.734;2023-07-29T07:19:26;2.50;;;1.00;;
29030;SDS011;16122;50.236;11.734;2023-07-29T07:21:52;2.37;;;1.10;;
29030;SDS011;16122;50.236;11.734;2023-07-29T07:24:17;1.90;;;0.90;;
29030;SDS011;16122;50.236;11.734;2023-07-29T07:26:43;1.53;;;1.10;;
29030;SDS011;16122;50.236;11.734;2023-07-29T07:29:09;1.83;;;1.20;;
29030;SDS011;16122;50.236;11.734;2023-07-29T07:31:35;1.30;;;1.20;;
29030;SDS011;16122;50.236;11.734;2023-07-29T07:34:01;2.50;;;1.30;;
29030;SDS011;16122;50.236;11.734;2023-07-29T07:36:29;2.20;;;1.27;;
29030;SDS011;16122;50.236;11.734;2023-07-29T07:38:55;2.57;;;1.47;;
29030;SDS011;16122;50.236;11.734;2023-07-29T07:41:22;1.00;;;0.90;;
29030;SDS011;16122;50.236;11.734;2023-07-29T07:43:49;1.40;;;1.30;;
29030;SDS011;16122;50.236;11.734;2023-07-29T07:46:15;1.20;;;1.07;;
29030;SDS011;16122;50.236;11.734;2023-07-29T07:48:40;1.83;;;1.30;;
29030;SDS011;16122;50.236;11.734;2023-07-29T07:51:12;1.67;;;1.30;;
29030;SDS011;16122;50.236;11.734;2023-07-29T07:53:39;1.70;;;1.27;;
29030;SDS011;16122;50.236;11.734;2023-07-29T07:56:05;2.10;;;1.23;;
29030;SDS011;16122;50.236;11.734;2023-07-29T07:58:32;6.80;;;1.67;;
29030;SDS011;16122;50.236;11.734;2023-07-29T08:01:05;3.33;;;1.50;;
29030;SDS011;16122;50.236;11.734;2023-07-29T08:03:31;6.80;;;2.03;;
29030;SDS011;16122;50.236;11.734;2023-07-29T08:05:57;3.17;;;1.87;;
29030;SDS011;16122;50.236;11.734;2023-07-29T08:08:24;4.30;;;1.80;;
29030;SDS011;16122;50.236;11.734;2023-07-29T08:10:51;3.90;;;1.80;;
29030;SDS011;16122;50.236;11.734;2023-07-29T08:13:21;2.87;;;1.90;;
29030;SDS011;16122;50.236;11.734;2023-07-29T08:15:48;2.43;;;1.80;;
29030;SDS011;16122;50.236;11.734;2023-07-29T08:18:15;4.40;;;1.80;;
29030;SDS011;16122;50.236;11.734;2023-07-29T08:20:41;3.03;;;1.60;;
29030;SDS011;16122;50.236;11.734;2023-07-29T08:23:16;4.50;;;2.03;;
29030;SDS011;16122;50.236;11.734;2023-07-29T08:25:42;4.70;;;1.77;;
29030;SDS011;16122;50.236;11.734;2023-07-29T08:28:08;3.00;;;1.60;;
29030;SDS011;16122;50.236;11.734;2023-07-29T08:30:36;4.53;;;2.13;;
29030;SDS011;16122;50.236;11.734;2023-07-29T08:33:02;6.90;;;2.27;;
29030;SDS011;16122;50.236;11.734;2023-07-29T08:35:28;7.50;;;2.40;;
29030;SDS011;16122;50.236;11.734;2023-07-29T08:37:53;8.53;;;2.47;;
29030;SDS011;16122;50.236;11.734;2023-07-29T08:40:22;2.90;;;2.00;;
29030;SDS011;16122;50.236;11.734;2023-07-29T08:42:54;4.00;;;1.77;;
29030;SDS011;16122;50.236;11.734;2023-07-29T08:45:22;6.80;;;2.37;;
29030;SDS011;16122;50.236;11.734;2023-07-29T08:47:50;8.43;;;2.83;;
29030;SDS011;16122;50.236;11.734;2023-07-29T08:50:23;5.47;;;2.10;;
29030;SDS011;16122;50.236;11.734;2023-07-29T08:52:50;3.40;;;2.23;;
29030;SDS011;16122;50.236;11.734;2023-07-29T08:55:18;5.37;;;2.50;;
29030;SDS011;16122;50.236;11.734;2023-07-29T08:57:46;2.20;;;1.87;;
29030;SDS011;16122;50.236;11.734;2023-07-29T09:00:12;7.53;;;2.00;;
29030;SDS011;16122;50.236;11.734;2023-07-29T09:02:38;4.77;;;2.07;;
29030;SDS011;16122;50.236;11.734;2023-07-29T09:05:04;4.60;;;2.30;;
29030;SDS011;16122;50.236;11.734;2023-07-29T09:07:30;6.73;;;2.73;;
29030;SDS011;16122;50.236;11.734;2023-07-29T09:09:59;5.00;;;2.63;;
29030;SDS011;16122;50.236;11.734;2023-07-29T09:12:25;3.63;;;2.83;;
29030;SDS011;16122;50.236;11.734;2023-07-29T09:14:54;5.37;;;2.80;;
29030;SDS011;16122;50.236;11.734;2023-07-29T09:17:19;8.80;;;2.73;;
29030;SDS011;16122;50.236;11.734;2023-07-29T09:19:50;6.23;;;3.07;;
29030;SDS011;16122;50.236;11.734;2023-07-29T09:22:19;7.50;;;3.00;;
29030;SDS011;16122;50.236;11.734;2023-07-29T09:24:46;5.07;;;2.83;;
29030;SDS011;16122;50.236;11.734;2023-07-29T09:27:23;7.90;;;2.97;;
29030;SDS011;16122;50.236;11.734;2023-07-29T09:29:53;6.13;;;3.00;;
29030;SDS011;16122;50.236;11.734;2023-07-29T09:32:20;8.67;;;2.80;;
29030;SDS011;16122;50.236;11.734;2023-07-29T09:34:47;9.03;;;3.30;;
29030;SDS011;16122;50.236;11.734;2023-07-29T09:37:31;7.17;;;3.27;;
29030;SDS011;16122;50.236;11.734;2023-07-29T09:39:57;7.33;;;2.70;;
29030;SDS011;16122;50.236;11.734;2023-07-29T09:42:23;3.77;;;2.60;;
29030;SDS011;16122;50.236;11.734;2023-07-29T09:44:49;6.77;;;3.00;;
29030;SDS011;16122;50.236;11.734;2023-07-29T09:47:25;4.97;;;2.40;;
29030;SDS011;16122;50.236;11.734;2023-07-29T09:49:51;5.47;;;2.77;;
29030;SDS011;16122;50.236;11.734;2023-07-29T09:52:18;6.23;;;2.30;;
29030;SDS011;16122;50.236;11.734;2023-07-29T09:54:47;6.00;;;2.63;;
29030;SDS011;16122;50.236;11.734;2023-07-29T09:57:16;3.57;;;2.50;;
29030;SDS011;16122;50.236;11.734;2023-07-29T09:59:53;4.20;;;2.40;;
29030;SDS011;16122;50.236;11.734;2023-07-29T10:02:20;6.17;;;2.50;;
29030;SDS011;16122;50.236;11.734;2023-07-29T10:04:46;3.70;;;2.60;;
29030;SDS011;16122;50.236;11.734;2023-07-29T10:07:13;3.40;;;2.00;;
29030;SDS011;16122;50.236;11.734;2023-07-29T10:09:39;5.57;;;2.50;;
29030;SDS011;16122;50.236;11.734;2023-07-29T10:12:06;7.20;;;2.50;;
29030;SDS011;16122;50.236;11.734;2023-07-29T10:14:33;5.37;;;2.40;;
29030;SDS011;16122;50.236;11.734;2023-07-29T10:17:00;3.33;;;2.20;;
29030;SDS011;16122;50.236;11.734;2023-07-29T10:19:27;3.90;;;2.30;;
29030;SDS011;16122;50.236;11.734;2023-07-29T10:21:53;5.73;;;2.20;;
29030;SDS011;16122;50.236;11.734;2023-07-29T10:24:24;3.17;;;2.30;;
29030;SDS011;16122;50.236;11.734;2023-07-29T10:26:57;4.30;;;2.37;;
29030;SDS011;16122;50.236;11.734;2023-07-29T10:29:24;3.30;;;1.83;;
29030;SDS011;16122;50.236;11.734;2023-07-29T10:31:52;4.67;;;2.70;;
29030;SDS011;16122;50.236;11.734;2023-07-29T10:34:21;3.57;;;2.33;;
29030;SDS011;16122;50.236;11.734;2023-07-29T10:36:48;5.40;;;2.60;;
29030;SDS011;16122;50.236;11.734;2023-07-29T10:39:15;7.50;;;3.43;;
29030;SDS011;16122;50.236;11.734;2023-07-29T10:42:02;10.37;;;3.80;;
29030;SDS011;16122;50.236;11.734;2023-07-29T10:47:12;11.50;;;5.47;;
29030;SDS011;16122;50.236;11.734;2023-07-29T10:49:46;14.30;;;6.20;;
29030;SDS011;16122;50.236;11.734;2023-07-29T10:52:15;9.43;;;4.73;;
29030;SDS011;16122;50.236;11.734;2023-07-29T10:54:43;12.33;;;5.10;;
29030;SDS011;16122;50.236;11.734;2023-07-29T10:57:16;13.30;;;5.63;;
29030;SDS011;16122;50.236;11.734;2023-07-29T10:59:55;12.20;;;6.10;;
29030;SDS011;16122;50.236;11.734;2023-07-29T11:02:22;12.60;;;5.00;;
29030;SDS011;16122;50.236;11.734;2023-07-29T11:08:22;14.40;;;5.00;;
29030;SDS011;16122;50.236;11.734;2023-07-29T11:11:05;10.07;;;3.90;;
29030;SDS011;16122;50.236;11.734;2023-07-29T11:13:36;8.37;;;4.57;;
29030;SDS011;16122;50.236;11.734;2023-07-29T11:16:03;17.70;;;5.00;;
29030;SDS011;16122;50.236;11.734;2023-07-29T11:18:31;11.77;;;4.13;;
29030;SDS011;16122;50.236;11.734;2023-07-29T11:20:59;12.13;;;4.30;;
29030;SDS011;16122;50.236;11.734;2023-07-29T11:23:36;11.10;;;4.27;;
29030;SDS011;16122;50.236;11.734;2023-07-29T11:26:02;11.23;;;4.00;;
29030;SDS011;16122;50.236;11.734;2023-07-29T11:28:29;9.27;;;4.13;;
29030;SDS011;16122;50.236;11.734;2023-07-29T11:30:56;18.00;;;5.20;;
29030;SDS011;16122;50.236;11.734;2023-07-29T11:33:26;11.53;;;3.90;;
29030;SDS011;16122;50.236;11.734;2023-07-29T11:35:53;7.90;;;3.53;;
29030;SDS011;16122;50.236;11.734;2023-07-29T11:38:20;8.87;;;4.17;;
29030;SDS011;16122;50.236;11.734;2023-07-29T11:40:54;8.93;;;3.50;;
29030;SDS011;16122;50.236;11.734;2023-07-29T11:43:28;4.57;;;2.40;;
29030;SDS011;16122;50.236;11.734;2023-07-29T11:45:54;5.13;;;3.03;;
29030;SDS011;16122;50.236;11.734;2023-07-29T11:48:31;7.80;;;3.13;;
29030;SDS011;16122;50.236;11.734;2023-07-29T11:50:58;8.00;;;2.97;;
29030;SDS011;16122;50.236;11.734;2023-07-29T11:53:30;6.47;;;3.00;;
29030;SDS011;16122;50.236;11.734;2023-07-29T11:55:56;7.40;;;2.90;;
29030;SDS011;16122;50.236;11.734;2023-07-29T11:58:23;5.93;;;2.97;;
29030;SDS011;16122;50.236;11.734;2023-07-29T12:00:49;8.43;;;3.20;;
29030;SDS011;16122;50.236;11.734;2023-07-29T12:03:15;6.10;;;2.93;;
29030;SDS011;16122;50.236;11.734;2023-07-29T12:05:43;8.57;;;3.20;;
29030;SDS011;16122;50.236;11.734;2023-07-29T12:08:09;6.83;;;2.70;;
29030;SDS011;16122;50.236;11.734;2023-07-29T12:10:35;8.13;;;2.97;;
29030;SDS011;16122;50.236;11.734;2023-07-29T12:13:01;8.90;;;2.93;;
29030;SDS011;16122;50.236;11.734;2023-07-29T12:15:28;7.67;;;2.73;;
29030;SDS011;16122;50.236;11.734;2023-07-29T12:17:59;7.57;;;2.77;;
29030;SDS011;16122;50.236;11.734;2023-07-29T12:20:25;8.20;;;3.10;;
29030;SDS011;16122;50.236;11.734;2023-07-29T12:22:55;4.97;;;2.83;;
29030;SDS011;16122;50.236;11.734;2023-07-29T12:25:22;7.90;;;3.57;;
29030;SDS011;16122;50.236;11.734;2023-07-29T12:27:48;7.03;;;3.33;;
29030;SDS011;16122;50.236;11.734;2023-07-29T12:30:15;10.33;;;3.90;;
29030;SDS011;16122;50.236;11.734;2023-07-29T12:32:45;11.67;;;2.80;;
29030;SDS011;16122;50.236;11.734;2023-07-29T12:35:12;11.13;;;3.57;;
29030;SDS011;16122;50.236;11.734;2023-07-29T12:37:38;12.13;;;3.70;;
29030;SDS011;16122;50.236;11.734;2023-07-29T12:40:07;9.00;;;3.50;;
29030;SDS011;16122;50.236;11.734;2023-07-29T12:42:54;8.30;;;3.53;;
29030;SDS011;16122;50.236;11.734;2023-07-29T12:45:20;9.77;;;3.83;;
29030;SDS011;16122;50.236;11.734;2023-07-29T12:47:48;13.07;;;3.70;;
29030;SDS011;16122;50.236;11.734;2023-07-29T12:50:14;9.30;;;3.30;;
29030;SDS011;16122;50.236;11.734;2023-07-29T12:52:40;10.77;;;3.40;;
29030;SDS011;16122;50.236;11.734;2023-07-29T12:55:05;9.10;;;3.40;;
29030;SDS011;16122;50.236;11.734;2023-07-29T12:57:34;12.03;;;3.80;;
29030;SDS011;16122;50.236;11.734;2023-07-29T13:00:00;11.80;;;4.00;;
29030;SDS011;16122;50.236;11.734;2023-07-29T13:02:28;10.23;;;3.20;;
29030;SDS011;16122;50.236;11.734;2023-07-29T13:04:54;8.20;;;3.00;;
29030;SDS011;16122;50.236;11.734;2023-07-29T13:07:20;10.23;;;3.40;;
29030;SDS011;16122;50.236;11.734;2023-07-29T13:09:46;8.93;;;3.67;;
29030;SDS011;16122;50.236;11.734;2023-07-29T13:12:12;8.83;;;2.90;;
29030;SDS011;16122;50.236;11.734;2023-07-29T13:14:38;9.37;;;2.97;;
29030;SDS011;16122;50.236;11.734;2023-07-29T13:17:04;9.57;;;3.70;;
29030;SDS011;16122;50.236;11.734;2023-07-29T13:19:30;6.93;;;3.17;;
29030;SDS011;16122;50.236;11.734;2023-07-29T13:21:56;9.33;;;3.33;;
29030;SDS011;16122;50.236;11.734;2023-07-29T13:24:21;7.60;;;3.03;;
29030;SDS011;16122;50.236;11.734;2023-07-29T13:26:47;9.70;;;3.80;;
29030;SDS011;16122;50.236;11.734;2023-07-29T13:29:13;8.47;;;3.63;;
29030;SDS011;16122;50.236;11.734;2023-07-29T13:31:39;12.13;;;3.47;;
29030;SDS011;16122;50.236;11.734;2023-07-29T13:34:04;6.80;;;2.83;;
29030;SDS011;16122;50.236;11.734;2023-07-29T13:36:30;10.33;;;3.57;;
29030;SDS011;16122;50.236;11.734;2023-07-29T13:38:56;7.07;;;3.07;;
29030;SDS011;16122;50.236;11.734;2023-07-29T13:41:23;5.83;;;2.10;;
29030;SDS011;16122;50.236;11.734;2023-07-29T13:43:49;8.43;;;2.83;;
29030;SDS011;16122;50.236;11.734;2023-07-29T13:46:15;8.20;;;3.50;;
29030;SDS011;16122;50.236;11.734;2023-07-29T13:48:41;11.00;;;3.10;;
29030;SDS011;16122;50.236;11.734;2023-07-29T13:51:06;8.23;;;3.17;;
29030;SDS011;16122;50.236;11.734;2023-07-29T13:53:32;8.90;;;3.17;;
29030;SDS011;16122;50.236;11.734;2023-07-29T13:55:58;6.30;;;2.73;;
29030;SDS011;16122;50.236;11.734;2023-07-29T13:58:24;6.63;;;2.70;;
29030;SDS011;16122;50.236;11.734;2023-07-29T14:00:51;7.90;;;3.10;;
29030;SDS011;16122;50.236;11.734;2023-07-29T14:03:17;5.87;;;2.47;;
29030;SDS011;16122;50.236;11.734;2023-07-29T14:05:42;7.37;;;2.67;;
29030;SDS011;16122;50.236;11.734;2023-07-29T14:08:08;5.80;;;2.80;;
29030;SDS011;16122;50.236;11.734;2023-07-29T14:10:34;6.40;;;2.57;;
29030;SDS011;16122;50.236;11.734;2023-07-29T14:13:00;11.90;;;3.13;;
29030;SDS011;16122;50.236;11.734;2023-07-29T14:15:25;8.47;;;3.17;;
29030;SDS011;16122;50.236;11.734;2023-07-29T14:17:53;5.90;;;2.60;;
29030;SDS011;16122;50.236;11.734;2023-07-29T14:20:19;10.40;;;2.50;;
29030;SDS011;16122;50.236;11.734;2023-07-29T14:22:45;5.60;;;2.13;;
29030;SDS011;16122;50.236;11.734;2023-07-29T14:25:11;3.73;;;1.97;;
29030;SDS011;16122;50.236;11.734;2023-07-29T14:27:36;4.90;;;2.20;;
29030;SDS011;16122;50.236;11.734;2023-07-29T14:30:03;5.20;;;2.43;;
29030;SDS011;16122;50.236;11.734;2023-07-29T14:32:30;6.87;;;2.50;;
29030;SDS011;16122;50.236;11.734;2023-07-29T14:34:55;6.87;;;2.70;;
29030;SDS011;16122;50.236;11.734;2023-07-29T14:37:21;3.83;;;2.10;;
29030;SDS011;16122;50.236;11.734;2023-07-29T14:39:47;8.30;;;2.90;;
29030;SDS011;16122;50.236;11.734;2023-07-29T14:42:13;6.80;;;2.60;;
29030;SDS011;16122;50.236;11.734;2023-07-29T14:44:40;3.57;;;2.03;;
29030;SDS011;16122;50.236;11.734;2023-07-29T14:47:07;3.93;;;2.13;;